createdAt,value
2023-01-19T04:48:00.778Z,0.98
2023-01-19T04:51:04.151Z,2.05
2023-01-19T04:54:09.011Z,2.00
2023-01-19T04:57:11.852Z,0.50
2023-01-19T05:00:14.795Z,1.40
2023-01-19T05:03:17.678Z,3.70
2023-01-19T05:06:20.230Z,0.95
2023-01-19T05:09:22.913Z,1.23
2023-01-19T05:12:25.350Z,1.27
2023-01-19T05:15:28.014Z,0.98
2023-01-19T05:18:35.910Z,0.82
2023-01-19T05:21:39.000Z,2.08
2023-01-19T05:24:41.425Z,1.83
2023-01-19T05:27:44.736Z,2.33
2023-01-19T05:30:49.029Z,1.25
2023-01-19T05:33:56.230Z,1.40
2023-01-19T05:36:59.027Z,0.50
2023-01-19T05:43:05.273Z,1.83
2023-01-19T05:46:08.300Z,1.62
2023-01-19T05:49:12.890Z,0.45
2023-01-19T05:52:15.542Z,1.50
2023-01-19T05:55:17.883Z,1.35
2023-01-19T05:58:21.110Z,0.93
2023-01-19T06:01:23.604Z,0.57
2023-01-19T06:04:26.847Z,1.87
2023-01-19T06:07:29.387Z,2.20
2023-01-19T06:13:35.417Z,0.85
2023-01-19T06:16:38.210Z,0.60
2023-01-19T06:19:41.920Z,1.50
2023-01-19T06:25:49.154Z,2.72
2023-01-19T06:28:52.282Z,1.33
2023-01-19T06:31:55.029Z,3.65
2023-01-19T06:34:58.096Z,1.60
2023-01-19T06:38:00.419Z,2.40
2023-01-19T06:41:03.329Z,3.80
2023-01-19T06:44:06.133Z,3.47
2023-01-19T06:47:15.208Z,1.48
2023-01-19T06:50:18.543Z,3.87
2023-01-19T06:53:22.362Z,2.55
2023-01-19T06:56:25.488Z,4.40
2023-01-19T07:02:30.902Z,5.78
2023-01-19T07:05:35.799Z,6.18
2023-01-19T07:08:38.662Z,6.78
2023-01-19T07:11:41.571Z,5.57
2023-01-19T07:14:44.093Z,5.85
2023-01-19T07:17:47.431Z,4.90
2023-01-19T07:20:49.909Z,9.65
2023-01-19T07:23:52.925Z,7.27
2023-01-19T07:26:55.650Z,5.62
2023-01-19T07:29:58.383Z,8.15
2023-01-19T07:33:02.738Z,8.02
2023-01-19T07:36:06.262Z,7.90
2023-01-19T07:39:08.646Z,6.07
2023-01-19T07:42:12.492Z,8.57
2023-01-19T07:45:17.042Z,7.50
2023-01-19T07:48:19.795Z,11.18
2023-01-19T07:51:22.334Z,8.02
2023-01-19T07:54:25.481Z,7.30
2023-01-19T07:57:28.505Z,9.02
2023-01-19T08:00:31.510Z,8.80
2023-01-19T08:03:34.377Z,9.88
2023-01-19T08:06:39.217Z,8.18
2023-01-19T08:09:41.967Z,9.00
2023-01-19T08:12:44.528Z,9.40
2023-01-19T08:15:54.641Z,7.55
2023-01-19T08:18:57.293Z,9.20
2023-01-19T08:22:00.187Z,8.75
2023-01-19T08:25:02.614Z,8.73
2023-01-19T08:28:06.760Z,11.32
2023-01-19T08:31:19.668Z,9.77
2023-01-19T08:34:24.598Z,8.25
2023-01-19T08:37:27.712Z,12.23
2023-01-19T08:43:37.950Z,11.32
2023-01-19T08:46:41.157Z,11.18
2023-01-19T08:49:44.079Z,9.20
2023-01-19T08:52:46.914Z,11.45
2023-01-19T08:55:50.629Z,9.93
2023-01-19T08:59:08.258Z,10.65
2023-01-19T09:02:12.091Z,8.82
2023-01-19T09:05:15.298Z,14.07
2023-01-19T09:08:18.145Z,12.65
2023-01-19T09:11:20.998Z,14.60
2023-01-19T09:14:23.684Z,12.73
2023-01-19T09:17:26.819Z,14.55
2023-01-19T09:20:31.106Z,13.52
2023-01-19T09:23:34.367Z,12.82
2023-01-19T09:26:37.724Z,14.52
2023-01-19T09:29:40.441Z,13.00
2023-01-19T09:32:43.048Z,20.12
2023-01-19T09:35:47.488Z,14.70
2023-01-19T09:38:50.806Z,9.95
2023-01-19T09:42:07.228Z,14.55
2023-01-19T09:45:38.622Z,12.95
2023-01-19T09:48:57.752Z,12.85
2023-01-19T09:52:00.626Z,12.48
2023-01-19T09:55:03.629Z,9.82
2023-01-19T09:58:13.739Z,13.23
2023-01-19T10:02:01.670Z,11.05
2023-01-19T10:05:23.072Z,11.48
2023-01-19T10:08:32.326Z,12.27
2023-01-19T10:12:26.632Z,13.13
2023-01-19T10:15:56.813Z,12.47
2023-01-19T10:19:12.999Z,11.85
2023-01-19T10:22:28.447Z,11.43
2023-01-19T10:25:33.296Z,9.63
2023-01-19T10:28:37.847Z,11.05
2023-01-19T10:31:44.755Z,8.63
2023-01-19T10:34:49.204Z,11.88
2023-01-19T10:38:02.759Z,9.68
2023-01-19T10:41:11.741Z,10.35
2023-01-19T10:44:24.120Z,10.98
2023-01-19T10:47:34.301Z,11.45
2023-01-19T10:50:40.945Z,9.77
2023-01-19T10:53:57.557Z,9.10
2023-01-19T10:57:07.410Z,10.10
2023-01-19T11:00:40.516Z,8.48
2023-01-19T11:03:43.604Z,10.77
2023-01-19T11:06:45.968Z,11.67
2023-01-19T11:09:53.751Z,11.57
2023-01-19T11:13:13.516Z,11.43
2023-01-19T11:16:26.785Z,9.32
2023-01-19T11:19:32.272Z,10.05
2023-01-19T11:22:34.980Z,9.73
2023-01-19T11:25:37.676Z,9.52
2023-01-19T11:28:46.030Z,9.30
2023-01-19T11:31:49.366Z,7.82
2023-01-19T11:34:52.234Z,9.90
2023-01-19T11:38:27.284Z,7.93
2023-01-19T11:41:36.350Z,7.68
2023-01-19T11:45:01.114Z,7.65
2023-01-19T11:48:07.285Z,7.40
2023-01-19T11:51:16.193Z,9.32
2023-01-19T11:54:25.627Z,9.45
2023-01-19T11:57:28.234Z,8.52
2023-01-19T12:00:36.944Z,8.70
2023-01-19T12:03:45.183Z,13.73
2023-01-19T12:06:56.645Z,7.37
2023-01-19T12:10:17.848Z,8.63
2023-01-19T12:13:23.383Z,7.87
2023-01-19T12:16:33.038Z,9.02
2023-01-19T12:19:50.545Z,9.55
2023-01-19T12:23:19.399Z,11.88
2023-01-19T12:26:49.330Z,10.75
2023-01-19T12:29:54.605Z,10.25
2023-01-19T12:33:22.211Z,11.40
2023-01-19T12:36:36.639Z,8.85
2023-01-19T12:39:48.175Z,7.28
2023-01-19T12:43:03.896Z,8.75
2023-01-19T12:46:30.992Z,9.55
2023-01-19T12:49:49.711Z,13.00
2023-01-19T12:52:58.702Z,9.02
2023-01-19T12:56:08.658Z,7.10
2023-01-19T12:59:25.351Z,9.98
2023-01-19T13:02:27.990Z,8.88
2023-01-19T13:05:39.535Z,10.88
2023-01-19T13:09:00.069Z,11.82
2023-01-19T13:12:32.256Z,9.48
2023-01-19T13:15:36.033Z,10.10
2023-01-19T13:18:41.424Z,10.93
2023-01-19T13:21:49.509Z,11.45
2023-01-19T13:25:09.924Z,10.10
2023-01-19T13:28:16.067Z,12.50
2023-01-19T13:31:19.794Z,12.05
2023-01-19T13:34:26.012Z,14.00
2023-01-19T13:37:37.798Z,12.50
2023-01-19T13:40:40.972Z,12.05
2023-01-19T13:43:43.913Z,14.93
2023-01-19T13:46:48.222Z,11.50
2023-01-19T13:49:56.584Z,14.48
2023-01-19T13:53:00.157Z,14.00
2023-01-19T13:56:27.727Z,16.23
2023-01-19T13:59:30.387Z,15.32
2023-01-19T14:02:33.469Z,14.02
2023-01-19T14:05:41.671Z,13.95
2023-01-19T14:08:44.231Z,13.50
2023-01-19T14:12:05.198Z,12.30
2023-01-19T14:15:14.000Z,14.87
2023-01-19T14:18:16.581Z,12.13
2023-01-19T14:21:18.987Z,12.27
2023-01-19T14:24:23.915Z,13.98
2023-01-19T14:27:26.426Z,10.43
2023-01-19T14:30:29.162Z,12.80
2023-01-19T14:33:39.985Z,15.48
2023-01-19T14:36:42.632Z,11.52
2023-01-19T14:39:48.145Z,14.20
2023-01-19T14:42:57.447Z,13.85
2023-01-19T14:45:59.857Z,11.52
2023-01-19T14:49:05.748Z,15.67
2023-01-19T14:52:27.783Z,13.23
2023-01-19T14:55:38.022Z,15.73
2023-01-19T14:58:41.107Z,15.65
2023-01-19T15:01:47.074Z,14.43
2023-01-19T15:04:53.879Z,18.00
2023-01-19T15:07:56.617Z,13.20
2023-01-19T15:11:09.174Z,17.17
2023-01-19T15:14:14.536Z,15.75
2023-01-19T15:17:25.370Z,17.42
2023-01-19T15:20:28.829Z,16.27
2023-01-19T15:23:32.604Z,16.45
2023-01-19T15:26:36.697Z,19.42
2023-01-19T15:29:42.066Z,17.05
2023-01-19T15:32:45.516Z,19.40
2023-01-19T15:35:48.947Z,21.30
2023-01-19T15:41:54.322Z,23.70
2023-01-19T15:44:57.017Z,18.67
2023-01-19T15:48:04.941Z,19.95
2023-01-19T15:51:15.506Z,18.73
2023-01-19T15:54:19.052Z,20.23
2023-01-19T15:57:22.218Z,17.87
2023-01-19T16:00:25.112Z,20.13
2023-01-19T16:03:27.905Z,20.75
2023-01-19T16:06:32.108Z,23.42
2023-01-19T16:09:40.345Z,24.58
2023-01-19T16:12:47.889Z,22.35
2023-01-19T16:15:50.673Z,18.02
2023-01-19T16:18:53.238Z,19.80
2023-01-19T16:21:55.927Z,21.70
2023-01-19T16:24:58.776Z,22.53
2023-01-19T16:28:01.471Z,22.03
2023-01-19T16:31:04.771Z,18.83
2023-01-19T16:34:08.807Z,19.40
2023-01-19T16:37:11.759Z,21.80
2023-01-19T16:40:14.971Z,24.65
2023-01-19T16:43:18.567Z,26.83
2023-01-19T16:46:27.280Z,20.67
2023-01-19T16:49:30.667Z,22.15
2023-01-19T16:52:34.009Z,19.65
